Time;durP1;ratioP1;P1;durP2;ratioP2;P2;SDS_P1;SDS_P2;PMS_P1;PMS_P2;Temp;Humidity;BMP_temperature;BMP_pressure;BME280_temperature;BME280_humidity;BME280_pressure;Samples;Min_cycle;Max_cycle;Signal;HPM_P1;HPM_P2
2023/04/09 00:00:11;;;;;;;57.78;25.75;;;9.90;75.80;;;;;;5038100;28;20041;-73
2023/04/09 00:02:41;;;;;;;57.80;25.25;;;9.80;76.00;;;;;;5066309;28;20550;-73
2023/04/09 00:05:10;;;;;;;57.28;25.23;;;9.80;76.10;;;;;;5049224;28;20060;-73
2023/04/09 00:07:37;;;;;;;57.80;25.90;;;9.80;76.10;;;;;;5068005;28;20052;-73
2023/04/09 00:10:04;;;;;;;60.25;26.70;;;9.90;76.10;;;;;;5067112;28;20045;-73
2023/04/09 00:12:31;;;;;;;57.47;25.48;;;9.90;76.20;;;;;;5066870;28;20049;-73
2023/04/09 00:14:58;;;;;;;51.83;24.65;;;9.90;76.20;;;;;;5055812;28;20053;-74
2023/04/09 00:17:25;;;;;;;58.33;26.08;;;10.00;76.20;;;;;;5047737;28;20147;-73
2023/04/09 00:19:52;;;;;;;57.17;24.53;;;10.00;76.10;;;;;;5054858;28;20218;-73
2023/04/09 00:22:20;;;;;;;51.33;23.55;;;9.90;76.20;;;;;;5066229;28;20053;-73
2023/04/09 00:24:48;;;;;;;51.83;24.15;;;9.90;76.20;;;;;;5065837;28;20049;-73
2023/04/09 00:27:15;;;;;;;49.42;23.08;;;9.90;76.20;;;;;;5067294;28;20132;-73
2023/04/09 00:29:42;;;;;;;47.83;22.08;;;9.80;76.30;;;;;;5060548;28;20045;-73
2023/04/09 00:32:09;;;;;;;44.60;20.70;;;9.80;76.30;;;;;;5061454;28;20093;-73
2023/04/09 00:34:37;;;;;;;43.83;20.50;;;9.80;76.40;;;;;;5054048;28;21226;-73
2023/04/09 00:37:04;;;;;;;51.58;23.63;;;9.80;76.50;;;;;;5069846;28;20410;-73
2023/04/09 00:39:33;;;;;;;46.20;22.35;;;9.70;76.50;;;;;;5052571;28;20124;-73
2023/04/09 00:42:02;;;;;;;46.05;21.70;;;9.70;76.50;;;;;;5052863;28;20140;-73
2023/04/09 00:44:29;;;;;;;46.37;21.27;;;9.70;76.50;;;;;;5069327;28;20152;-73
2023/04/09 00:46:57;;;;;;;43.70;20.83;;;9.70;76.50;;;;;;5052348;28;20131;-73
2023/04/09 00:49:25;;;;;;;46.50;21.38;;;9.70;76.80;;;;;;5045690;28;20042;-73
2023/04/09 00:51:52;;;;;;;47.67;21.27;;;9.70;76.90;;;;;;5049052;28;20049;-73
2023/04/09 00:54:19;;;;;;;44.03;21.02;;;9.70;76.90;;;;;;5054673;28;20059;-73
2023/04/09 00:56:48;;;;;;;45.73;20.83;;;9.70;77.10;;;;;;5069176;28;20584;-73
2023/04/09 00:59:15;;;;;;;44.88;20.15;;;9.70;77.20;;;;;;5051948;28;20566;-73
2023/04/09 01:01:42;;;;;;;46.45;20.35;;;9.70;77.20;;;;;;5070660;28;20522;-73
2023/04/09 01:04:09;;;;;;;44.17;20.33;;;9.70;77.10;;;;;;5052271;28;20573;-73
2023/04/09 01:06:50;;;;;;;42.28;19.42;;;9.70;77.20;;;;;;5063856;28;20060;-73
2023/04/09 01:09:24;;;;;;;43.00;20.77;;;9.60;77.10;;;;;;5057090;28;20100;-73
2023/04/09 01:12:02;;;;;;;37.63;17.33;;;9.70;77.20;;;;;;5036497;28;20045;-73
2023/04/09 01:14:37;;;;;;;39.17;17.98;;;9.70;77.20;;;;;;5036874;28;20041;-73
2023/04/09 01:17:18;;;;;;;38.78;17.70;;;9.70;77.10;;;;;;5067377;28;20153;-73
2023/04/09 01:19:56;;;;;;;39.92;17.80;;;9.60;77.00;;;;;;5048624;28;20041;-73
2023/04/09 01:22:32;;;;;;;40.23;17.73;;;9.60;77.10;;;;;;5043762;28;20156;-73
2023/04/09 01:25:06;;;;;;;37.75;17.50;;;9.60;77.10;;;;;;5040084;28;20434;-73
2023/04/09 01:27:57;;;;;;;40.60;18.30;;;9.60;77.10;;;;;;5068764;28;20068;-73
2023/04/09 01:30:27;;;;;;;39.00;17.90;;;9.60;77.20;;;;;;5046221;28;20052;-73
2023/04/09 01:32:56;;;;;;;39.53;18.52;;;9.60;77.20;;;;;;5068502;28;20111;-73
2023/04/09 01:35:25;;;;;;;40.03;17.77;;;9.60;77.30;;;;;;5051500;28;20164;-73
2023/04/09 01:37:54;;;;;;;40.95;17.58;;;9.60;77.20;;;;;;5067994;28;20533;-73
2023/04/09 01:40:21;;;;;;;39.72;17.67;;;9.60;77.20;;;;;;5047017;28;20144;-73
2023/04/09 01:42:49;;;;;;;41.13;18.90;;;9.60;77.20;;;;;;5048415;28;20111;-73
2023/04/09 01:45:18;;;;;;;38.38;18.20;;;9.60;77.20;;;;;;5062900;28;20455;-73
2023/04/09 01:47:46;;;;;;;40.10;18.87;;;9.60;77.30;;;;;;5068348;28;20063;-73
2023/04/09 01:50:13;;;;;;;38.25;18.77;;;9.60;77.20;;;;;;5068016;28;20095;-73
2023/04/09 01:52:40;;;;;;;36.28;17.67;;;9.70;77.10;;;;;;5068322;28;20187;-73
2023/04/09 01:55:08;;;;;;;40.05;18.45;;;9.70;77.10;;;;;;5051638;28;20458;-74
2023/04/09 01:57:35;;;;;;;39.58;18.70;;;9.70;77.10;;;;;;5051783;28;20546;-73
2023/04/09 02:00:03;;;;;;;40.50;17.73;;;9.70;77.00;;;;;;5036906;28;20050;-73
2023/04/09 02:02:50;;;;;;;38.72;18.02;;;9.80;77.00;;;;;;5048235;28;20056;-73
2023/04/09 02:05:21;;;;;;;37.60;17.55;;;9.80;76.90;;;;;;5046627;28;20597;-73
2023/04/09 02:07:55;;;;;;;43.20;18.90;;;9.80;76.80;;;;;;5069745;28;20053;-73
2023/04/09 02:10:26;;;;;;;39.50;19.20;;;9.80;76.90;;;;;;5050507;28;20132;-73
2023/04/09 02:12:56;;;;;;;38.07;17.87;;;9.80;76.90;;;;;;5051083;28;20112;-73
2023/04/09 02:15:24;;;;;;;37.08;17.80;;;9.80;76.90;;;;;;5051002;28;20052;-73
2023/04/09 02:17:52;;;;;;;42.80;19.15;;;9.90;76.80;;;;;;5052045;28;20076;-73
2023/04/09 02:20:20;;;;;;;39.72;18.77;;;9.90;76.80;;;;;;5062513;28;20055;-73
2023/04/09 02:22:47;;;;;;;39.55;18.05;;;9.90;76.70;;;;;;5050636;28;20128;-73
2023/04/09 02:25:14;;;;;;;39.47;18.30;;;10.00;76.60;;;;;;5044856;28;20060;-73
2023/04/09 02:27:41;;;;;;;40.13;19.63;;;9.90;76.60;;;;;;5050493;28;20140;-73
2023/04/09 02:30:09;;;;;;;41.47;19.40;;;9.90;76.50;;;;;;5050584;28;20049;-73
2023/04/09 02:32:36;;;;;;;37.05;18.35;;;9.90;76.50;;;;;;5050876;28;20041;-73
2023/04/09 02:35:05;;;;;;;40.65;18.95;;;9.80;76.60;;;;;;5052974;28;20073;-73
2023/04/09 02:37:32;;;;;;;39.90;19.80;;;9.80;76.60;;;;;;5047429;28;20478;-73
2023/04/09 02:39:59;;;;;;;36.03;18.30;;;9.80;76.60;;;;;;5044245;28;20110;-73
2023/04/09 02:42:26;;;;;;;38.10;18.25;;;9.80;76.70;;;;;;5050891;28;20053;-74
2023/04/09 02:44:53;;;;;;;37.45;17.40;;;9.80;76.80;;;;;;5050530;28;20052;-73
2023/04/09 02:47:22;;;;;;;37.47;17.88;;;9.70;76.90;;;;;;5067147;28;20080;-73
2023/04/09 02:49:49;;;;;;;39.33;18.03;;;9.70;77.00;;;;;;5049805;28;20541;-73
2023/04/09 02:52:19;;;;;;;40.78;19.60;;;9.60;77.10;;;;;;5036110;28;20506;-73
2023/04/09 02:54:46;;;;;;;39.30;18.10;;;9.60;77.20;;;;;;5041670;28;20056;-73
2023/04/09 02:57:14;;;;;;;41.03;19.15;;;9.50;77.30;;;;;;5067321;28;20081;-73
2023/04/09 02:59:41;;;;;;;40.78;18.75;;;9.50;77.40;;;;;;5049519;28;20534;-73
2023/04/09 03:02:08;;;;;;;36.63;18.20;;;9.50;77.50;;;;;;5064002;28;20075;-73
2023/04/09 03:04:35;;;;;;;37.08;18.20;;;9.50;77.60;;;;;;5066723;28;20049;-73
2023/04/09 03:07:02;;;;;;;36.60;18.02;;;9.50;77.60;;;;;;5041674;28;20045;-73
2023/04/09 03:09:30;;;;;;;37.38;17.77;;;9.50;77.60;;;;;;5063275;28;20128;-73
2023/04/09 03:11:57;;;;;;;34.90;17.25;;;9.50;77.70;;;;;;5041954;28;20424;-73
2023/04/09 03:14:24;;;;;;;39.47;19.17;;;9.50;77.70;;;;;;5046178;28;20052;-73
2023/04/09 03:16:51;;;;;;;37.83;18.23;;;9.50;77.80;;;;;;5045585;28;20076;-73
2023/04/09 03:19:18;;;;;;;40.22;19.17;;;9.50;77.80;;;;;;5042926;28;20053;-73
2023/04/09 03:21:48;;;;;;;37.28;18.05;;;9.40;77.80;;;;;;5051237;28;20472;-73
2023/04/09 03:24:15;;;;;;;37.50;17.60;;;9.40;77.90;;;;;;5058122;28;20049;-73
2023/04/09 03:26:44;;;;;;;40.43;18.97;;;9.40;77.90;;;;;;5040316;28;20046;-73
2023/04/09 03:29:14;;;;;;;40.30;19.83;;;9.40;78.00;;;;;;5037551;28;20751;-73
2023/04/09 03:31:40;;;;;;;38.65;18.98;;;9.40;78.00;;;;;;5066763;28;20049;-73
2023/04/09 03:34:08;;;;;;;41.00;19.05;;;9.40;78.00;;;;;;5066901;28;20618;-73
2023/04/09 03:36:35;;;;;;;40.88;18.13;;;9.40;78.10;;;;;;5045364;28;20049;-73
2023/04/09 03:39:03;;;;;;;37.00;17.17;;;9.40;78.10;;;;;;5045842;28;20037;-73
2023/04/09 03:41:36;;;;;;;37.28;17.88;;;9.40;78.00;;;;;;5049722;28;20072;-73
2023/04/09 03:44:08;;;;;;;37.60;18.88;;;9.40;78.10;;;;;;5031665;28;20054;-73
2023/04/09 03:46:51;;;;;;;36.65;17.42;;;9.40;78.10;;;;;;5046310;28;20057;-73
2023/04/09 03:49:19;;;;;;;37.30;17.80;;;9.40;78.00;;;;;;5039713;28;20118;-73
2023/04/09 03:51:46;;;;;;;39.60;18.10;;;9.40;78.10;;;;;;5050007;28;20045;-73
2023/04/09 03:54:13;;;;;;;36.05;17.58;;;9.40;78.10;;;;;;5049602;28;20045;-73
2023/04/09 03:56:41;;;;;;;36.08;17.38;;;9.40;78.10;;;;;;5066462;28;20055;-73
2023/04/09 03:59:13;;;;;;;36.03;17.88;;;9.40;78.10;;;;;;5066337;28;20618;-73
2023/04/09 04:01:45;;;;;;;36.10;18.58;;;9.40;78.20;;;;;;5037683;28;20135;-73
2023/04/09 04:04:12;;;;;;;37.20;17.63;;;9.40;78.20;;;;;;5037718;28;20076;-73
2023/04/09 04:06:47;;;;;;;36.17;17.25;;;9.40;78.20;;;;;;5049107;28;20053;-73
2023/04/09 04:09:20;;;;;;;37.25;18.20;;;9.40;78.20;;;;;;5065603;28;20056;-73
2023/04/09 04:11:54;;;;;;;34.15;16.30;;;9.40;78.20;;;;;;5049369;28;20903;-73
2023/04/09 04:14:24;;;;;;;35.97;16.70;;;9.40;78.20;;;;;;5049382;28;20056;-73
2023/04/09 04:16:57;;;;;;;37.77;17.77;;;9.40;78.30;;;;;;5049559;28;20514;-73
2023/04/09 04:19:28;;;;;;;36.63;17.17;;;9.30;78.20;;;;;;5035556;28;20042;-73
2023/04/09 04:21:56;;;;;;;36.22;17.00;;;9.30;78.30;;;;;;5031246;28;20580;-73
2023/04/09 04:24:24;;;;;;;33.92;15.88;;;9.30;78.40;;;;;;5049332;28;20045;-73
2023/04/09 04:26:52;;;;;;;33.05;17.33;;;9.30;78.30;;;;;;5065922;28;20056;-73
2023/04/09 04:29:20;;;;;;;36.30;17.33;;;9.20;78.40;;;;;;5048573;28;20059;-73
2023/04/09 04:31:54;;;;;;;37.75;17.08;;;9.20;78.40;;;;;;5049109;28;20045;-73
2023/04/09 04:34:24;;;;;;;34.00;16.25;;;9.20;78.40;;;;;;5048699;28;20073;-73
2023/04/09 04:36:59;;;;;;;35.53;16.98;;;9.20;78.50;;;;;;5034716;28;20056;-73
2023/04/09 04:39:31;;;;;;;34.75;16.50;;;9.20;78.40;;;;;;5039795;28;20046;-73
2023/04/09 04:42:02;;;;;;;33.23;16.07;;;9.20;78.50;;;;;;5065864;28;20049;-73
2023/04/09 04:44:30;;;;;;;35.47;16.08;;;9.20;78.50;;;;;;5048378;28;20049;-73
2023/04/09 04:47:08;;;;;;;32.78;16.33;;;9.20;78.40;;;;;;5064012;28;20907;-73
2023/04/09 04:49:35;;;;;;;36.83;17.25;;;9.10;78.40;;;;;;5043133;28;20458;-73
2023/04/09 04:52:05;;;;;;;33.85;16.67;;;9.10;78.40;;;;;;5048104;28;20045;-73
2023/04/09 04:54:33;;;;;;;31.83;14.93;;;9.10;78.50;;;;;;5043050;28;20057;-73
2023/04/09 04:57:01;;;;;;;31.23;15.43;;;9.10;78.40;;;;;;5042697;28;20049;-73
2023/04/09 04:59:32;;;;;;;32.92;15.85;;;9.10;78.00;;;;;;5058115;28;20541;-73
2023/04/09 05:02:03;;;;;;;32.80;15.65;;;9.00;77.70;;;;;;5047128;28;20045;-73
2023/04/09 05:04:37;;;;;;;34.13;16.55;;;9.00;77.60;;;;;;5060109;28;20629;-73
2023/04/09 05:07:06;;;;;;;32.87;15.93;;;9.00;77.80;;;;;;5060710;28;20056;-73
2023/04/09 05:09:44;;;;;;;34.85;16.48;;;9.00;77.80;;;;;;5058399;28;20053;-73
2023/04/09 05:12:12;;;;;;;35.45;16.63;;;8.90;77.80;;;;;;5038761;28;20052;-74
2023/04/09 05:14:39;;;;;;;38.83;16.83;;;8.90;77.80;;;;;;5068571;28;20179;-73
2023/04/09 05:17:06;;;;;;;33.72;16.40;;;8.90;77.80;;;;;;5052260;28;20045;-73
2023/04/09 05:19:43;;;;;;;33.13;16.17;;;8.90;77.80;;;;;;5046458;28;20556;-73
2023/04/09 05:22:12;;;;;;;34.20;15.82;;;8.90;77.80;;;;;;5048076;28;20119;-75
2023/04/09 05:24:39;;;;;;;34.65;16.25;;;8.90;77.90;;;;;;5071794;28;20057;-73
2023/04/09 05:27:06;;;;;;;33.58;16.85;;;9.00;77.80;;;;;;5051490;28;20088;-73
2023/04/09 05:29:34;;;;;;;35.20;17.27;;;8.90;77.60;;;;;;5050369;28;20045;-73
2023/04/09 05:32:02;;;;;;;31.90;15.10;;;8.90;77.50;;;;;;5068150;28;20053;-73
2023/04/09 05:34:35;;;;;;;33.08;16.13;;;8.90;77.30;;;;;;5051541;28;20051;-73
2023/04/09 05:37:03;;;;;;;32.33;16.75;;;8.90;77.30;;;;;;5051036;28;20048;-73
2023/04/09 05:39:32;;;;;;;34.83;16.45;;;8.90;77.30;;;;;;5064193;28;20076;-73
2023/04/09 05:42:01;;;;;;;35.33;16.95;;;8.90;77.30;;;;;;4947255;28;20056;-73
2023/04/09 05:44:34;;;;;;;37.60;17.40;;;8.90;77.30;;;;;;5018143;28;20147;-73
2023/04/09 05:47:13;;;;;;;36.00;17.02;;;8.90;77.30;;;;;;5069938;28;20844;-73
2023/04/09 05:49:55;;;;;;;32.58;16.20;;;8.90;77.30;;;;;;5054029;28;20135;-73
2023/04/09 05:52:24;;;;;;;31.60;15.38;;;8.90;77.30;;;;;;5059128;28;20045;-73
2023/04/09 05:54:52;;;;;;;34.83;16.13;;;9.00;77.30;;;;;;5056035;28;20056;-73
2023/04/09 05:57:26;;;;;;;32.53;16.17;;;9.00;77.30;;;;;;5057678;28;20532;-74
2023/04/09 05:59:58;;;;;;;36.65;15.95;;;9.00;77.40;;;;;;5051198;28;20045;-73
2023/04/09 06:02:26;;;;;;;33.00;16.05;;;9.00;77.40;;;;;;5069693;28;20052;-73
2023/04/09 06:04:54;;;;;;;30.38;15.45;;;9.00;77.30;;;;;;5073711;28;20056;-73
2023/04/09 06:07:22;;;;;;;31.85;15.85;;;9.00;77.40;;;;;;5076872;28;20103;-74
2023/04/09 06:09:50;;;;;;;31.47;15.73;;;9.00;77.30;;;;;;5049105;28;20057;-73
2023/04/09 06:12:17;;;;;;;35.20;17.00;;;9.00;77.30;;;;;;5048916;28;20077;-73
2023/04/09 06:14:47;;;;;;;31.67;16.27;;;9.00;77.30;;;;;;5064123;28;20049;-74
2023/04/09 06:17:14;;;;;;;30.90;15.43;;;9.00;77.10;;;;;;5048780;28;20077;-73
2023/04/09 06:19:41;;;;;;;32.28;15.85;;;9.00;77.00;;;;;;5064627;28;20136;-73
2023/04/09 06:22:10;;;;;;;31.40;15.47;;;9.00;76.80;;;;;;5050412;28;20059;-73
2023/04/09 06:24:37;;;;;;;33.13;15.57;;;9.00;76.70;;;;;;5065270;28;20049;-73
2023/04/09 06:27:06;;;;;;;31.77;17.08;;;9.00;76.70;;;;;;5057195;28;20081;-73
2023/04/09 06:29:33;;;;;;;32.00;15.65;;;9.00;76.70;;;;;;5063329;28;20052;-73
2023/04/09 06:32:01;;;;;;;31.67;15.30;;;9.00;76.70;;;;;;5065276;28;20499;-73
2023/04/09 06:34:28;;;;;;;32.53;16.10;;;9.00;76.90;;;;;;5065551;28;20514;-73
2023/04/09 06:36:55;;;;;;;31.33;15.30;;;9.00;76.90;;;;;;5064473;28;20144;-73
2023/04/09 06:39:22;;;;;;;33.50;16.08;;;9.00;76.80;;;;;;5058345;28;20835;-73
2023/04/09 06:41:49;;;;;;;30.75;15.63;;;9.00;76.70;;;;;;5064853;28;20061;-73
2023/04/09 06:44:39;;;;;;;32.42;15.80;;;9.00;76.80;;;;;;5043981;28;20051;-73
2023/04/09 06:47:07;;;;;;;32.53;16.23;;;9.00;76.70;;;;;;5060326;28;20060;-73
2023/04/09 06:49:34;;;;;;;32.75;16.25;;;9.00;76.70;;;;;;5054364;28;20045;-73
2023/04/09 06:52:01;;;;;;;33.80;16.02;;;9.00;76.80;;;;;;5047289;28;20044;-74
2023/04/09 06:54:28;;;;;;;32.22;14.90;;;9.00;76.80;;;;;;5064932;28;20132;-74
2023/04/09 06:56:55;;;;;;;34.05;16.90;;;9.00;76.80;;;;;;5058762;28;20124;-74
2023/04/09 06:59:23;;;;;;;33.20;16.13;;;9.00;76.70;;;;;;5063715;28;20191;-75
2023/04/09 07:01:51;;;;;;;35.35;16.80;;;9.00;76.60;;;;;;5062407;28;20053;-76
2023/04/09 07:04:18;;;;;;;34.08;16.65;;;9.00;76.60;;;;;;5057586;28;20121;-75
2023/04/09 07:06:45;;;;;;;35.25;16.55;;;9.00;76.70;;;;;;5066637;28;20055;-75
2023/04/09 07:09:12;;;;;;;35.88;16.70;;;9.00;76.80;;;;;;5065419;28;20128;-75
2023/04/09 07:11:40;;;;;;;31.97;15.97;;;9.00;76.90;;;;;;5067007;28;20057;-75
2023/04/09 07:14:07;;;;;;;34.13;16.52;;;9.00;76.90;;;;;;5065914;28;20151;-75
2023/04/09 07:16:34;;;;;;;35.10;16.23;;;9.00;76.90;;;;;;5064420;28;20239;-75
2023/04/09 07:19:03;;;;;;;36.13;17.40;;;9.00;76.80;;;;;;5058805;28;20050;-75
2023/04/09 07:21:31;;;;;;;37.28;17.95;;;9.00;76.70;;;;;;5055848;28;20076;-75
2023/04/09 07:23:58;;;;;;;35.40;17.10;;;9.00;76.40;;;;;;5065635;28;20136;-75
2023/04/09 07:26:25;;;;;;;37.20;16.92;;;9.00;76.40;;;;;;5074951;28;20502;-75
2023/04/09 07:28:53;;;;;;;32.95;16.90;;;9.00;76.50;;;;;;5090315;28;20134;-75
2023/04/09 07:31:20;;;;;;;33.67;16.38;;;9.00;76.50;;;;;;5067141;28;20140;-75
2023/04/09 07:33:47;;;;;;;34.17;16.92;;;8.90;76.50;;;;;;5073036;28;20053;-75
2023/04/09 07:36:16;;;;;;;36.30;17.83;;;9.00;76.60;;;;;;5009891;28;20100;-74
2023/04/09 07:38:43;;;;;;;37.72;17.30;;;9.00;76.70;;;;;;5061843;28;20146;-74
2023/04/09 07:41:11;;;;;;;36.35;17.45;;;9.00;76.80;;;;;;5063018;28;20051;-75
2023/04/09 07:43:38;;;;;;;38.40;17.52;;;9.00;76.90;;;;;;5052590;28;20049;-75
2023/04/09 07:46:06;;;;;;;37.67;17.00;;;9.00;77.10;;;;;;5054705;28;20056;-75
2023/04/09 07:48:33;;;;;;;34.77;17.13;;;9.00;77.10;;;;;;5056146;28;20144;-75
2023/04/09 07:51:00;;;;;;;39.88;17.65;;;9.00;77.00;;;;;;5052471;28;20056;-75
2023/04/09 07:53:29;;;;;;;37.65;17.38;;;9.00;77.00;;;;;;5052952;28;20046;-75
2023/04/09 07:55:56;;;;;;;37.88;17.70;;;9.00;77.20;;;;;;5051098;28;20952;-75
2023/04/09 07:58:23;;;;;;;35.67;17.15;;;9.10;77.20;;;;;;5031552;28;20053;-75
2023/04/09 08:00:51;;;;;;;43.40;19.27;;;9.10;77.30;;;;;;5057818;28;20540;-75
2023/04/09 08:03:18;;;;;;;35.53;17.08;;;9.20;77.50;;;;;;5047164;28;20676;-75
2023/04/09 08:05:45;;;;;;;40.63;18.45;;;9.20;77.30;;;;;;5054887;28;20058;-74
2023/04/09 08:08:12;;;;;;;37.22;18.50;;;9.20;77.50;;;;;;5054901;28;20048;-75
2023/04/09 08:10:40;;;;;;;38.85;18.92;;;9.20;77.40;;;;;;5053830;28;20057;-75
2023/04/09 08:13:07;;;;;;;38.90;18.13;;;9.20;77.50;;;;;;5053607;28;20482;-75
2023/04/09 08:15:35;;;;;;;43.33;20.75;;;9.20;77.50;;;;;;5056052;28;20144;-74
2023/04/09 08:18:02;;;;;;;41.03;19.33;;;9.20;77.50;;;;;;5054475;28;20056;-74
2023/04/09 08:20:31;;;;;;;42.28;20.17;;;9.20;77.50;;;;;;5055273;28;20135;-74
2023/04/09 08:22:59;;;;;;;40.70;18.65;;;9.30;77.60;;;;;;5060545;28;20060;-75
2023/04/09 08:25:26;;;;;;;38.33;18.13;;;9.30;77.70;;;;;;5049864;28;20046;-74
2023/04/09 08:27:54;;;;;;;42.67;20.70;;;9.40;77.80;;;;;;5052782;28;20049;-75
2023/04/09 08:30:21;;;;;;;38.95;19.25;;;9.40;77.70;;;;;;5053652;28;20053;-75
2023/04/09 08:32:48;;;;;;;38.22;19.52;;;9.40;77.50;;;;;;5055879;28;20049;-75
2023/04/09 08:35:16;;;;;;;40.90;19.15;;;9.40;77.40;;;;;;5056158;28;20191;-75
2023/04/09 08:37:43;;;;;;;41.70;21.37;;;9.50;77.30;;;;;;5057234;28;20059;-75
2023/04/09 08:40:11;;;;;;;41.92;20.77;;;9.50;77.30;;;;;;5053840;28;20171;-74
2023/04/09 08:42:43;;;;;;;37.47;18.73;;;9.50;77.50;;;;;;5057824;28;20133;-76
2023/04/09 08:45:13;;;;;;;39.65;19.02;;;9.50;77.70;;;;;;5047580;28;20533;-75
2023/04/09 08:47:41;;;;;;;38.53;19.33;;;9.60;77.70;;;;;;5056826;28;20475;-74
2023/04/09 08:50:09;;;;;;;35.77;17.57;;;9.60;77.70;;;;;;5055339;28;20056;-75
2023/04/09 08:52:37;;;;;;;37.92;18.10;;;9.70;77.80;;;;;;5057464;28;20092;-75
2023/04/09 08:55:05;;;;;;;40.90;18.30;;;9.70;77.90;;;;;;5036932;28;20599;-75
2023/04/09 08:57:37;;;;;;;40.30;19.85;;;9.80;77.50;;;;;;5053904;28;20069;-75
2023/04/09 09:00:05;;;;;;;40.10;20.42;;;9.80;77.20;;;;;;5040361;28;20126;-75
2023/04/09 09:02:33;;;;;;;36.30;18.23;;;9.90;77.10;;;;;;5052227;28;20664;-75
2023/04/09 09:05:00;;;;;;;33.42;17.52;;;9.90;77.00;;;;;;5054603;28;20045;-74
2023/04/09 09:07:28;;;;;;;38.30;18.60;;;10.00;77.20;;;;;;5062534;28;20187;-75
2023/04/09 09:09:57;;;;;;;38.58;19.45;;;10.00;77.20;;;;;;5060626;28;20504;-75
2023/04/09 09:12:35;;;;;;;34.72;17.83;;;10.00;77.30;;;;;;5051772;28;20188;-76
2023/04/09 09:15:02;;;;;;;37.87;18.50;;;10.10;77.30;;;;;;5041880;28;20041;-75
2023/04/09 09:17:30;;;;;;;38.58;18.40;;;10.20;77.10;;;;;;5059724;28;20131;-75
2023/04/09 09:19:59;;;;;;;40.53;19.20;;;10.20;77.00;;;;;;5060549;28;20053;-72
2023/04/09 09:22:26;;;;;;;33.20;16.63;;;10.30;76.90;;;;;;5056538;28;20128;-72
2023/04/09 09:24:53;;;;;;;31.55;16.23;;;10.30;76.90;;;;;;5060400;28;20127;-72
2023/04/09 09:27:35;;;;;;;37.63;17.03;;;10.40;76.40;;;;;;5061802;28;20080;-73
2023/04/09 09:30:03;;;;;;;37.17;16.77;;;10.40;75.90;;;;;;5063492;28;20564;-73
2023/04/09 09:32:30;;;;;;;35.35;16.90;;;10.50;76.20;;;;;;5064728;28;20482;-73
2023/04/09 09:35:07;;;;;;;35.35;16.92;;;10.50;76.20;;;;;;5063538;28;20811;-73
2023/04/09 09:37:34;;;;;;;36.65;17.80;;;10.60;76.20;;;;;;5041583;28;20057;-73
2023/04/09 09:40:02;;;;;;;33.73;17.37;;;10.60;76.20;;;;;;5066497;28;20139;-72
2023/04/09 09:42:29;;;;;;;32.83;16.27;;;10.70;76.10;;;;;;5065962;28;20049;-72
2023/04/09 09:44:56;;;;;;;35.83;17.75;;;10.70;76.00;;;;;;5067858;28;20134;-72
2023/04/09 09:47:24;;;;;;;32.97;15.75;;;10.80;76.10;;;;;;5067751;28;20642;-72
2023/04/09 09:49:51;;;;;;;31.38;16.58;;;10.90;75.70;;;;;;5044538;28;20324;-72
2023/04/09 09:52:25;;;;;;;32.60;16.80;;;10.90;75.50;;;;;;4971410;28;20514;-72
2023/04/09 09:54:54;;;;;;;33.80;16.77;;;11.00;75.70;;;;;;5038485;28;20049;-72
2023/04/09 09:57:25;;;;;;;35.60;18.17;;;11.10;75.80;;;;;;5051010;28;20073;-72
2023/04/09 09:59:55;;;;;;;33.50;17.70;;;11.10;76.00;;;;;;5054595;28;20057;-75
2023/04/09 10:02:25;;;;;;;34.53;16.85;;;11.30;75.50;;;;;;5057963;28;20285;-74
2023/04/09 10:04:52;;;;;;;32.87;17.37;;;11.30;75.00;;;;;;5057420;28;20345;-74
2023/04/09 10:07:21;;;;;;;33.83;17.75;;;11.40;75.20;;;;;;5064609;28;20049;-74
2023/04/09 10:09:51;;;;;;;33.38;17.83;;;11.50;75.40;;;;;;5063396;28;20072;-75
2023/04/09 10:12:21;;;;;;;31.42;16.48;;;11.50;75.30;;;;;;5057459;28;20636;-76
2023/04/09 10:14:48;;;;;;;30.23;15.98;;;11.50;74.70;;;;;;5062189;28;20606;-75
2023/04/09 10:17:15;;;;;;;31.43;16.20;;;11.60;74.30;;;;;;5065601;28;20060;-76
2023/04/09 10:19:46;;;;;;;31.38;15.52;;;11.70;73.90;;;;;;5062969;28;20103;-75
2023/04/09 10:22:17;;;;;;;33.35;16.92;;;11.70;73.90;;;;;;5062040;28;20056;-76
2023/04/09 10:24:46;;;;;;;31.05;16.13;;;11.70;73.50;;;;;;5061094;28;20049;-75
2023/04/09 10:27:15;;;;;;;34.28;16.85;;;11.70;73.60;;;;;;5047239;28;20052;-75
2023/04/09 10:29:45;;;;;;;31.30;16.13;;;11.90;73.80;;;;;;5087654;28;20053;-76
2023/04/09 10:32:12;;;;;;;30.38;16.05;;;11.90;73.90;;;;;;5052750;28;20132;-75
2023/04/09 10:34:41;;;;;;;32.20;16.40;;;12.00;73.80;;;;;;5053381;28;20715;-74
2023/04/09 10:37:09;;;;;;;30.80;15.93;;;12.10;73.20;;;;;;5055350;28;20057;-75
2023/04/09 10:39:41;;;;;;;30.85;16.83;;;12.10;72.80;;;;;;5003383;27;20258;-75
2023/04/09 10:42:13;;;;;;;29.67;16.03;;;12.20;71.60;;;;;;5054400;28;20116;-75
2023/04/09 10:44:41;;;;;;;29.50;15.00;;;12.20;71.70;;;;;;5057174;28;20049;-75
2023/04/09 10:47:09;;;;;;;26.80;14.45;;;12.30;71.90;;;;;;5052531;28;20061;-75
2023/04/09 10:49:37;;;;;;;24.77;13.45;;;12.40;71.80;;;;;;5049052;28;20072;-74
2023/04/09 10:52:06;;;;;;;27.42;14.52;;;12.50;71.60;;;;;;5054157;28;20465;-75
2023/04/09 10:54:56;;;;;;;27.47;14.67;;;12.50;70.90;;;;;;5012053;28;20499;-75
2023/04/09 10:57:25;;;;;;;27.77;14.52;;;12.50;69.80;;;;;;5056699;28;20593;-73
2023/04/09 10:59:53;;;;;;;27.08;14.93;;;12.60;69.70;;;;;;5059516;28;20534;-73
2023/04/09 11:03:06;;;;;;;29.88;14.60;;;12.70;70.10;;;;;;5054233;28;20053;-74
2023/04/09 11:05:35;;;;;;;28.60;15.18;;;12.70;70.10;;;;;;5057006;28;20495;-72
2023/04/09 11:08:05;;;;;;;28.30;15.17;;;12.80;70.20;;;;;;5056409;28;20053;-72
2023/04/09 11:10:33;;;;;;;29.48;15.30;;;12.80;70.40;;;;;;5063949;28;20056;-73
2023/04/09 11:13:01;;;;;;;26.02;14.75;;;12.90;70.20;;;;;;5060194;28;20052;-73
2023/04/09 11:15:29;;;;;;;25.75;15.25;;;12.90;69.90;;;;;;5060334;28;20061;-73
2023/04/09 11:17:57;;;;;;;26.58;14.82;;;13.00;69.20;;;;;;5062885;28;20138;-73
2023/04/09 11:20:26;;;;;;;25.87;14.00;;;13.00;68.90;;;;;;5056774;28;20740;-73
2023/04/09 11:22:54;;;;;;;26.02;14.70;;;13.00;68.40;;;;;;5060538;28;20227;-73
2023/04/09 11:25:21;;;;;;;29.85;15.82;;;13.00;67.60;;;;;;5054185;28;20606;-73
2023/04/09 11:27:49;;;;;;;27.73;14.93;;;13.00;67.40;;;;;;5061161;28;20084;-73
2023/04/09 11:30:18;;;;;;;24.98;13.45;;;13.00;67.50;;;;;;5061503;28;20057;-73
2023/04/09 11:32:45;;;;;;;24.17;12.67;;;13.00;67.80;;;;;;5055526;28;20048;-73
2023/04/09 11:35:13;;;;;;;25.38;13.27;;;13.10;67.60;;;;;;5058601;28;20071;-73
2023/04/09 11:37:41;;;;;;;28.02;13.70;;;13.10;67.50;;;;;;5054480;28;20045;-73
2023/04/09 11:40:15;;;;;;;24.67;13.82;;;13.10;67.10;;;;;;5055404;28;20057;-73
2023/04/09 11:42:42;;;;;;;25.42;13.23;;;13.20;66.20;;;;;;5049164;28;20502;-73
2023/04/09 11:45:10;;;;;;;25.67;13.77;;;13.30;66.50;;;;;;5060393;28;20155;-73
2023/04/09 11:47:40;;;;;;;26.83;14.80;;;13.30;65.80;;;;;;5039341;28;20064;-74
2023/04/09 11:50:09;;;;;;;24.98;14.43;;;13.30;65.70;;;;;;5058828;28;20503;-73
2023/04/09 11:52:36;;;;;;;26.23;13.50;;;13.30;65.30;;;;;;5052923;28;20145;-74
2023/04/09 11:55:04;;;;;;;23.67;13.23;;;13.30;65.20;;;;;;5048398;28;20045;-74
2023/04/09 11:57:38;;;;;;;21.43;11.77;;;13.30;65.20;;;;;;5042984;28;20140;-73
2023/04/09 12:00:09;;;;;;;22.02;12.18;;;13.30;65.00;;;;;;5045586;28;20054;-73
2023/04/09 12:02:43;;;;;;;24.15;13.02;;;13.40;65.50;;;;;;5049997;28;20132;-74
2023/04/09 12:05:12;;;;;;;23.63;13.13;;;13.50;66.00;;;;;;5053838;28;20571;-73
2023/04/09 12:07:40;;;;;;;24.45;13.65;;;13.50;66.20;;;;;;5049171;28;20041;-73
2023/04/09 12:10:10;;;;;;;24.97;12.83;;;13.60;66.10;;;;;;5056759;28;20155;-73
2023/04/09 12:12:41;;;;;;;24.45;13.68;;;13.60;65.60;;;;;;5055781;28;20041;-73
2023/04/09 12:15:20;;;;;;;23.95;12.93;;;13.70;64.70;;;;;;5047840;28;20625;-73
2023/04/09 12:17:50;;;;;;;25.20;12.85;;;13.70;64.60;;;;;;5052863;28;20060;-73
2023/04/09 12:20:34;;;;;;;23.38;12.77;;;13.80;64.40;;;;;;5057309;28;20689;-72
2023/04/09 12:23:03;;;;;;;23.53;13.10;;;13.90;64.20;;;;;;5059050;28;20071;-72
2023/04/09 12:25:31;;;;;;;23.50;12.60;;;13.90;64.70;;;;;;5055294;28;20138;-71
2023/04/09 12:27:58;;;;;;;23.77;13.43;;;14.00;64.00;;;;;;5061430;28;20053;-72
2023/04/09 12:30:25;;;;;;;22.33;12.77;;;14.10;64.40;;;;;;5033013;28;20136;-73
2023/04/09 12:32:54;;;;;;;24.45;13.70;;;14.20;64.60;;;;;;5064134;28;20049;-73
2023/04/09 12:35:21;;;;;;;23.87;13.47;;;14.30;64.30;;;;;;5048025;28;20049;-73
2023/04/09 12:37:49;;;;;;;22.38;12.50;;;14.30;63.90;;;;;;5058457;28;20531;-72
2023/04/09 12:40:17;;;;;;;24.52;13.95;;;14.30;64.10;;;;;;5050608;28;20115;-73
2023/04/09 12:42:45;;;;;;;23.60;13.30;;;14.40;63.40;;;;;;5063498;28;20057;-73